sensor_id;sensor_type;location;lat;lon;timestamp;pressure;altitude;pressure_sealevel;temperature;humidity
45872;BME280;32333;55.844;-3.210;2023-03-14T00:01:53;97121.39;;;-1.23;100.00
45872;BME280;32333;55.844;-3.210;2023-03-14T00:04:21;97127.06;;;-1.47;100.00
45872;BME280;32333;55.844;-3.210;2023-03-14T00:06:49;97135.04;;;-1.41;100.00
45872;BME280;32333;55.844;-3.210;2023-03-14T00:09:17;97143.84;;;-0.98;100.00
45872;BME280;32333;55.844;-3.210;2023-03-14T00:11:44;97144.36;;;-0.54;100.00
45872;BME280;32333;55.844;-3.210;2023-03-14T00:14:36;97151.27;;;-1.00;100.00
45872;BME280;32333;55.844;-3.210;2023-03-14T00:17:03;97156.17;;;-1.80;100.00
45872;BME280;32333;55.844;-3.210;2023-03-14T00:19:31;97165.13;;;-1.40;100.00
45872;BME280;32333;55.844;-3.210;2023-03-14T00:22:00;97174.25;;;0.05;100.00
45872;BME280;32333;55.844;-3.210;2023-03-14T00:24:27;97176.87;;;-1.10;100.00
45872;BME280;32333;55.844;-3.210;2023-03-14T00:26:55;97179.13;;;-1.44;100.00
45872;BME280;32333;55.844;-3.210;2023-03-14T00:29:23;97183.26;;;-0.11;100.00
45872;BME280;32333;55.844;-3.210;2023-03-14T00:31:51;97185.91;;;-0.34;100.00
45872;BME280;32333;55.844;-3.210;2023-03-14T00:34:19;97188.63;;;-0.28;100.00
45872;BME280;32333;55.844;-3.210;2023-03-14T00:36:46;97202.67;;;-0.11;100.00
45872;BME280;32333;55.844;-3.210;2023-03-14T00:39:15;97209.97;;;-0.52;100.00
45872;BME280;32333;55.844;-3.210;2023-03-14T00:41:43;97217.12;;;0.05;100.00
45872;BME280;32333;55.844;-3.210;2023-03-14T00:44:36;97219.34;;;-0.33;100.00
45872;BME280;32333;55.844;-3.210;2023-03-14T00:47:04;97219.96;;;-0.96;100.00
45872;BME280;32333;55.844;-3.210;2023-03-14T00:49:31;97225.61;;;-1.25;100.00
45872;BME280;32333;55.844;-3.210;2023-03-14T00:52:00;97231.07;;;-1.12;100.00
45872;BME280;32333;55.844;-3.210;2023-03-14T00:54:27;97237.86;;;-0.66;100.00
45872;BME280;32333;55.844;-3.210;2023-03-14T00:56:56;97242.07;;;-0.71;100.00
45872;BME280;32333;55.844;-3.210;2023-03-14T00:59:24;97246.24;;;-1.39;100.00
45872;BME280;32333;55.844;-3.210;2023-03-14T01:01:53;97256.24;;;-0.62;100.00
45872;BME280;32333;55.844;-3.210;2023-03-14T01:04:20;97259.21;;;-0.88;100.00
45872;BME280;32333;55.844;-3.210;2023-03-14T01:06:47;97268.15;;;-1.81;100.00
45872;BME280;32333;55.844;-3.210;2023-03-14T01:09:15;97276.87;;;-1.35;100.00
45872;BME280;32333;55.844;-3.210;2023-03-14T01:11:43;97284.95;;;-0.98;100.00
45872;BME280;32333;55.844;-3.210;2023-03-14T01:14:36;97292.75;;;-1.36;100.00
45872;BME280;32333;55.844;-3.210;2023-03-14T01:17:03;97299.73;;;-2.61;100.00
45872;BME280;32333;55.844;-3.210;2023-03-14T01:19:32;97296.90;;;-2.61;100.00
45872;BME280;32333;55.844;-3.210;2023-03-14T01:22:01;97296.91;;;-3.02;100.00
45872;BME280;32333;55.844;-3.210;2023-03-14T01:24:29;97299.91;;;-1.75;100.00
45872;BME280;32333;55.844;-3.210;2023-03-14T01:26:57;97308.05;;;-0.48;100.00
45872;BME280;32333;55.844;-3.210;2023-03-14T01:29:26;97312.99;;;-1.25;100.00
45872;BME280;32333;55.844;-3.210;2023-03-14T01:31:54;97324.74;;;-0.96;100.00
45872;BME280;32333;55.844;-3.210;2023-03-14T01:34:22;97333.42;;;-1.55;100.00
45872;BME280;32333;55.844;-3.210;2023-03-14T01:36:50;97335.69;;;-1.22;100.00
45872;BME280;32333;55.844;-3.210;2023-03-14T01:39:18;97343.23;;;-2.05;100.00
45872;BME280;32333;55.844;-3.210;2023-03-14T01:41:45;97355.84;;;-1.13;100.00
45872;BME280;32333;55.844;-3.210;2023-03-14T01:44:54;97354.20;;;-0.38;100.00
45872;BME280;32333;55.844;-3.210;2023-03-14T01:47:23;97358.67;;;-1.28;100.00
45872;BME280;32333;55.844;-3.210;2023-03-14T01:49:53;97368.66;;;-1.76;100.00
45872;BME280;32333;55.844;-3.210;2023-03-14T01:52:24;97369.36;;;-2.43;100.00
45872;BME280;32333;55.844;-3.210;2023-03-14T01:54:57;97369.13;;;-1.44;100.00
45872;BME280;32333;55.844;-3.210;2023-03-14T01:57:30;97375.14;;;-0.97;100.00
45872;BME280;32333;55.844;-3.210;2023-03-14T02:00:03;97380.91;;;-1.53;100.00
45872;BME280;32333;55.844;-3.210;2023-03-14T02:02:31;97385.98;;;-2.07;100.00
45872;BME280;32333;55.844;-3.210;2023-03-14T02:04:59;97390.05;;;-1.52;100.00
45872;BME280;32333;55.844;-3.210;2023-03-14T02:07:32;97384.33;;;-1.85;100.00
45872;BME280;32333;55.844;-3.210;2023-03-14T02:10:04;97386.39;;;-1.88;100.00
45872;BME280;32333;55.844;-3.210;2023-03-14T02:14:37;97406.54;;;-0.58;100.00
45872;BME280;32333;55.844;-3.210;2023-03-14T02:17:06;97418.06;;;-1.99;100.00
45872;BME280;32333;55.844;-3.210;2023-03-14T02:19:50;97427.83;;;-0.50;100.00
45872;BME280;32333;55.844;-3.210;2023-03-14T02:22:18;97419.39;;;-1.63;100.00
45872;BME280;32333;55.844;-3.210;2023-03-14T02:24:53;97423.00;;;-1.34;100.00
45872;BME280;32333;55.844;-3.210;2023-03-14T02:27:24;97430.10;;;-0.76;100.00
45872;BME280;32333;55.844;-3.210;2023-03-14T02:29:54;97444.04;;;-0.07;100.00
45872;BME280;32333;55.844;-3.210;2023-03-14T02:32:26;97450.61;;;-0.46;100.00
45872;BME280;32333;55.844;-3.210;2023-03-14T02:34:57;97446.74;;;-1.46;100.00
45872;BME280;32333;55.844;-3.210;2023-03-14T02:37:30;97450.94;;;-1.16;100.00
45872;BME280;32333;55.844;-3.210;2023-03-14T02:39:59;97450.25;;;-1.43;100.00
45872;BME280;32333;55.844;-3.210;2023-03-14T02:44:34;97455.15;;;-0.49;100.00
45872;BME280;32333;55.844;-3.210;2023-03-14T02:47:04;97459.12;;;-0.80;100.00
45872;BME280;32333;55.844;-3.210;2023-03-14T02:49:32;97460.41;;;-0.61;100.00
45872;BME280;32333;55.844;-3.210;2023-03-14T02:52:00;97468.52;;;-1.00;100.00
45872;BME280;32333;55.844;-3.210;2023-03-14T02:54:27;97472.99;;;-1.24;100.00
45872;BME280;32333;55.844;-3.210;2023-03-14T02:56:55;97475.06;;;-0.46;100.00
45872;BME280;32333;55.844;-3.210;2023-03-14T02:59:22;97480.93;;;-0.63;100.00
45872;BME280;32333;55.844;-3.210;2023-03-14T03:01:50;97486.47;;;-0.63;100.00
45872;BME280;32333;55.844;-3.210;2023-03-14T03:04:18;97487.22;;;-0.95;100.00
45872;BME280;32333;55.844;-3.210;2023-03-14T03:06:45;97487.07;;;-1.25;100.00
45872;BME280;32333;55.844;-3.210;2023-03-14T03:09:13;97485.37;;;-0.55;100.00
45872;BME280;32333;55.844;-3.210;2023-03-14T03:11:41;97492.14;;;-0.99;100.00
45872;BME280;32333;55.844;-3.210;2023-03-14T03:14:36;97494.69;;;-1.05;100.00
45872;BME280;32333;55.844;-3.210;2023-03-14T03:17:04;97493.96;;;-0.35;100.00
45872;BME280;32333;55.844;-3.210;2023-03-14T03:19:33;97498.84;;;-0.22;100.00
45872;BME280;32333;55.844;-3.210;2023-03-14T03:22:01;97497.54;;;-0.21;100.00
45872;BME280;32333;55.844;-3.210;2023-03-14T03:24:28;97498.64;;;-0.89;100.00
45872;BME280;32333;55.844;-3.210;2023-03-14T03:26:56;97496.99;;;-0.91;100.00
45872;BME280;32333;55.844;-3.210;2023-03-14T03:29:23;97503.04;;;-1.51;100.00
45872;BME280;32333;55.844;-3.210;2023-03-14T03:31:50;97507.50;;;-2.01;100.00
45872;BME280;32333;55.844;-3.210;2023-03-14T03:34:19;97508.22;;;-1.44;100.00
45872;BME280;32333;55.844;-3.210;2023-03-14T03:36:46;97512.31;;;-1.76;100.00
45872;BME280;32333;55.844;-3.210;2023-03-14T03:39:13;97513.41;;;-1.28;100.00
45872;BME280;32333;55.844;-3.210;2023-03-14T03:41:41;97522.39;;;-1.30;100.00
45872;BME280;32333;55.844;-3.210;2023-03-14T03:44:34;97521.39;;;-0.91;100.00
45872;BME280;32333;55.844;-3.210;2023-03-14T03:47:02;97525.01;;;-1.26;100.00
45872;BME280;32333;55.844;-3.210;2023-03-14T03:49:30;97528.25;;;-1.09;100.00
45872;BME280;32333;55.844;-3.210;2023-03-14T03:51:57;97541.96;;;-1.58;100.00
45872;BME280;32333;55.844;-3.210;2023-03-14T03:54:26;97539.21;;;-0.67;100.00
45872;BME280;32333;55.844;-3.210;2023-03-14T03:56:54;97546.75;;;-0.87;100.00
45872;BME280;32333;55.844;-3.210;2023-03-14T03:59:22;97549.29;;;-0.76;100.00
45872;BME280;32333;55.844;-3.210;2023-03-14T04:01:49;97551.89;;;-1.36;100.00
45872;BME280;32333;55.844;-3.210;2023-03-14T04:04:17;97548.27;;;-0.51;100.00
45872;BME280;32333;55.844;-3.210;2023-03-14T04:06:44;97550.13;;;-1.48;100.00
45872;BME280;32333;55.844;-3.210;2023-03-14T04:09:12;97558.12;;;-1.49;100.00
45872;BME280;32333;55.844;-3.210;2023-03-14T04:11:39;97565.35;;;-0.74;100.00
45872;BME280;32333;55.844;-3.210;2023-03-14T04:14:35;97569.68;;;-1.24;100.00
45872;BME280;32333;55.844;-3.210;2023-03-14T04:17:04;97579.46;;;-2.44;100.00
45872;BME280;32333;55.844;-3.210;2023-03-14T04:19:32;97577.67;;;-1.62;100.00
45872;BME280;32333;55.844;-3.210;2023-03-14T04:22:01;97578.06;;;-1.34;100.00
45872;BME280;32333;55.844;-3.210;2023-03-14T04:24:28;97585.58;;;-2.30;100.00
45872;BME280;32333;55.844;-3.210;2023-03-14T04:26:56;97592.62;;;-2.20;100.00
45872;BME280;32333;55.844;-3.210;2023-03-14T04:29:23;97601.69;;;-2.36;100.00
45872;BME280;32333;55.844;-3.210;2023-03-14T04:31:50;97604.64;;;-2.26;100.00
45872;BME280;32333;55.844;-3.210;2023-03-14T04:34:18;97603.76;;;-1.70;100.00
45872;BME280;32333;55.844;-3.210;2023-03-14T04:36:46;97604.20;;;-0.54;100.00
45872;BME280;32333;55.844;-3.210;2023-03-14T04:39:13;97606.83;;;-1.05;100.00
45872;BME280;32333;55.844;-3.210;2023-03-14T04:41:40;97604.83;;;-0.78;100.00
45872;BME280;32333;55.844;-3.210;2023-03-14T04:44:34;97609.19;;;-0.63;100.00
45872;BME280;32333;55.844;-3.210;2023-03-14T04:47:02;97605.06;;;-0.45;100.00
45872;BME280;32333;55.844;-3.210;2023-03-14T04:49:29;97604.29;;;-0.42;100.00
45872;BME280;32333;55.844;-3.210;2023-03-14T04:51:56;97602.92;;;-1.22;100.00
45872;BME280;32333;55.844;-3.210;2023-03-14T04:54:24;97608.39;;;-1.14;100.00
45872;BME280;32333;55.844;-3.210;2023-03-14T04:56:52;97613.74;;;-1.12;100.00
45872;BME280;32333;55.844;-3.210;2023-03-14T04:59:19;97619.26;;;-1.21;100.00
45872;BME280;32333;55.844;-3.210;2023-03-14T05:01:48;97620.16;;;-1.16;100.00
45872;BME280;32333;55.844;-3.210;2023-03-14T05:04:15;97628.70;;;-2.10;100.00
45872;BME280;32333;55.844;-3.210;2023-03-14T05:06:43;97625.70;;;-2.21;100.00
45872;BME280;32333;55.844;-3.210;2023-03-14T05:09:11;97631.61;;;-1.61;100.00
45872;BME280;32333;55.844;-3.210;2023-03-14T05:11:39;97638.31;;;-2.47;100.00
45872;BME280;32333;55.844;-3.210;2023-03-14T05:14:35;97645.18;;;-2.90;100.00
45872;BME280;32333;55.844;-3.210;2023-03-14T05:17:02;97645.17;;;-2.06;100.00
45872;BME280;32333;55.844;-3.210;2023-03-14T05:19:30;97645.72;;;-1.12;100.00
45872;BME280;32333;55.844;-3.210;2023-03-14T05:21:58;97644.01;;;-2.20;100.00
45872;BME280;32333;55.844;-3.210;2023-03-14T05:24:26;97649.15;;;-0.98;100.00
45872;BME280;32333;55.844;-3.210;2023-03-14T05:26:53;97649.26;;;-1.29;100.00
45872;BME280;32333;55.844;-3.210;2023-03-14T05:29:20;97655.65;;;-2.18;100.00
45872;BME280;32333;55.844;-3.210;2023-03-14T05:31:48;97661.84;;;-3.23;100.00
45872;BME280;32333;55.844;-3.210;2023-03-14T05:34:15;97663.52;;;-3.03;100.00
45872;BME280;32333;55.844;-3.210;2023-03-14T05:36:42;97662.72;;;-1.96;100.00
45872;BME280;32333;55.844;-3.210;2023-03-14T05:39:09;97662.76;;;-2.44;100.00
45872;BME280;32333;55.844;-3.210;2023-03-14T05:41:37;97662.00;;;-2.31;100.00
45872;BME280;32333;55.844;-3.210;2023-03-14T05:44:35;97660.79;;;-2.30;100.00
45872;BME280;32333;55.844;-3.210;2023-03-14T05:47:02;97662.02;;;-2.03;100.00
45872;BME280;32333;55.844;-3.210;2023-03-14T05:49:30;97664.46;;;-2.30;100.00
45872;BME280;32333;55.844;-3.210;2023-03-14T05:51:57;97657.61;;;-3.01;100.00
45872;BME280;32333;55.844;-3.210;2023-03-14T05:54:25;97657.98;;;-2.35;100.00
45872;BME280;32333;55.844;-3.210;2023-03-14T05:56:53;97662.91;;;-2.47;100.00
45872;BME280;32333;55.844;-3.210;2023-03-14T05:59:21;97675.47;;;-2.79;100.00
45872;BME280;32333;55.844;-3.210;2023-03-14T06:01:48;97691.18;;;-3.75;100.00
45872;BME280;32333;55.844;-3.210;2023-03-14T06:04:15;97694.73;;;-3.55;100.00
45872;BME280;32333;55.844;-3.210;2023-03-14T06:06:42;97699.34;;;-4.40;100.00
45872;BME280;32333;55.844;-3.210;2023-03-14T06:09:10;97701.13;;;-3.27;100.00
45872;BME280;32333;55.844;-3.210;2023-03-14T06:11:38;97697.96;;;-3.08;100.00
45872;BME280;32333;55.844;-3.210;2023-03-14T06:14:35;97692.63;;;-3.51;100.00
45872;BME280;32333;55.844;-3.210;2023-03-14T06:17:03;97698.38;;;-2.59;100.00
45872;BME280;32333;55.844;-3.210;2023-03-14T06:19:31;97696.56;;;-2.88;100.00
45872;BME280;32333;55.844;-3.210;2023-03-14T06:22:00;97701.20;;;-3.23;100.00
45872;BME280;32333;55.844;-3.210;2023-03-14T06:24:27;97697.53;;;-2.95;100.00
45872;BME280;32333;55.844;-3.210;2023-03-14T06:26:54;97705.33;;;-3.51;100.00
45872;BME280;32333;55.844;-3.210;2023-03-14T06:29:22;97710.41;;;-3.43;100.00
45872;BME280;32333;55.844;-3.210;2023-03-14T06:31:51;97716.15;;;-3.48;100.00
45872;BME280;32333;55.844;-3.210;2023-03-14T06:34:19;97716.30;;;-3.00;100.00
45872;BME280;32333;55.844;-3.210;2023-03-14T06:36:47;97712.64;;;-3.33;100.00
45872;BME280;32333;55.844;-3.210;2023-03-14T06:39:16;97709.74;;;-3.09;100.00
45872;BME280;32333;55.844;-3.210;2023-03-14T06:41:44;97716.09;;;-2.99;100.00
45872;BME280;32333;55.844;-3.210;2023-03-14T06:44:34;97715.63;;;-3.49;100.00
45872;BME280;32333;55.844;-3.210;2023-03-14T06:47:02;97720.19;;;-3.37;100.00
45872;BME280;32333;55.844;-3.210;2023-03-14T06:49:29;97722.77;;;-2.53;100.00
45872;BME280;32333;55.844;-3.210;2023-03-14T06:51:56;97725.05;;;-2.72;100.00
45872;BME280;32333;55.844;-3.210;2023-03-14T06:54:24;97728.38;;;-2.75;100.00
45872;BME280;32333;55.844;-3.210;2023-03-14T06:56:53;97742.55;;;-2.21;100.00
45872;BME280;32333;55.844;-3.210;2023-03-14T06:59:21;97747.01;;;-2.74;100.00
45872;BME280;32333;55.844;-3.210;2023-03-14T07:01:50;97754.49;;;-2.11;100.00
45872;BME280;32333;55.844;-3.210;2023-03-14T07:04:19;97756.03;;;-3.30;100.00
45872;BME280;32333;55.844;-3.210;2023-03-14T07:07:02;97765.71;;;-2.83;100.00
45872;BME280;32333;55.844;-3.210;2023-03-14T07:09:31;97762.62;;;-3.41;100.00
45872;BME280;32333;55.844;-3.210;2023-03-14T07:11:58;97766.87;;;-3.92;100.00
45872;BME280;32333;55.844;-3.210;2023-03-14T07:14:34;97777.15;;;-3.46;100.00
45872;BME280;32333;55.844;-3.210;2023-03-14T07:17:02;97772.82;;;-3.44;100.00
45872;BME280;32333;55.844;-3.210;2023-03-14T07:19:30;97779.31;;;-2.78;100.00
45872;BME280;32333;55.844;-3.210;2023-03-14T07:21:57;97781.10;;;-3.14;100.00
45872;BME280;32333;55.844;-3.210;2023-03-14T07:24:25;97793.59;;;-3.00;100.00
45872;BME280;32333;55.844;-3.210;2023-03-14T07:26:52;97788.16;;;-3.02;100.00
45872;BME280;32333;55.844;-3.210;2023-03-14T07:29:20;97792.89;;;-3.35;100.00
45872;BME280;32333;55.844;-3.210;2023-03-14T07:31:48;97795.09;;;-2.72;100.00
45872;BME280;32333;55.844;-3.210;2023-03-14T07:34:16;97799.86;;;-2.51;100.00
45872;BME280;32333;55.844;-3.210;2023-03-14T07:36:44;97807.89;;;-2.62;100.00
45872;BME280;32333;55.844;-3.210;2023-03-14T07:39:12;97809.48;;;-2.56;100.00
45872;BME280;32333;55.844;-3.210;2023-03-14T07:41:40;97815.72;;;-2.18;100.00
45872;BME280;32333;55.844;-3.210;2023-03-14T07:44:37;97821.73;;;-2.10;100.00
45872;BME280;32333;55.844;-3.210;2023-03-14T07:47:04;97825.11;;;-2.49;100.00
45872;BME280;32333;55.844;-3.210;2023-03-14T07:49:32;97833.65;;;-1.84;100.00
45872;BME280;32333;55.844;-3.210;2023-03-14T07:52:01;97838.25;;;-1.75;100.00
45872;BME280;32333;55.844;-3.210;2023-03-14T07:54:29;97852.99;;;-1.66;100.00
45872;BME280;32333;55.844;-3.210;2023-03-14T07:56:57;97863.16;;;-1.75;100.00
45872;BME280;32333;55.844;-3.210;2023-03-14T07:59:31;97864.50;;;-1.84;100.00
45872;BME280;32333;55.844;-3.210;2023-03-14T08:02:01;97873.34;;;-1.81;100.00
45872;BME280;32333;55.844;-3.210;2023-03-14T08:04:30;97883.28;;;-1.54;100.00
45872;BME280;32333;55.844;-3.210;2023-03-14T08:07:00;97875.06;;;-2.10;100.00
45872;BME280;32333;55.844;-3.210;2023-03-14T08:09:28;97876.66;;;-1.65;100.00
45872;BME280;32333;55.844;-3.210;2023-03-14T08:11:56;97880.49;;;-1.22;100.00
45872;BME280;32333;55.844;-3.210;2023-03-14T08:14:37;97876.35;;;-0.56;100.00
45872;BME280;32333;55.844;-3.210;2023-03-14T08:17:05;97891.62;;;-0.85;100.00
45872;BME280;32333;55.844;-3.210;2023-03-14T08:19:32;97899.31;;;-0.05;100.00
45872;BME280;32333;55.844;-3.210;2023-03-14T08:22:01;97905.27;;;0.07;100.00
45872;BME280;32333;55.844;-3.210;2023-03-14T08:24:28;97910.03;;;1.17;100.00
45872;BME280;32333;55.844;-3.210;2023-03-14T08:26:56;97906.71;;;1.92;100.00
45872;BME280;32333;55.844;-3.210;2023-03-14T08:29:26;97914.98;;;1.28;100.00
45872;BME280;32333;55.844;-3.210;2023-03-14T08:31:53;97922.33;;;2.40;100.00
45872;BME280;32333;55.844;-3.210;2023-03-14T08:34:21;97928.05;;;3.05;100.00
45872;BME280;32333;55.844;-3.210;2023-03-14T08:36:51;97930.89;;;2.65;100.00
45872;BME280;32333;55.844;-3.210;2023-03-14T08:39:19;97933.45;;;1.93;100.00
45872;BME280;32333;55.844;-3.210;2023-03-14T08:41:49;97938.60;;;1.95;100.00
45872;BME280;32333;55.844;-3.210;2023-03-14T08:44:35;97939.26;;;2.52;100.00
45872;BME280;32333;55.844;-3.210;2023-03-14T08:47:03;97941.08;;;1.97;100.00
45872;BME280;32333;55.844;-3.210;2023-03-14T08:49:35;97937.57;;;2.41;100.00
45872;BME280;32333;55.844;-3.210;2023-03-14T08:52:03;97931.83;;;2.25;100.00
45872;BME280;32333;55.844;-3.210;2023-03-14T08:54:42;97931.93;;;1.85;100.00
45872;BME280;32333;55.844;-3.210;2023-03-14T09:09:47;97955.13;;;4.19;100.00
45872;BME280;32333;55.844;-3.210;2023-03-14T09:14:36;97959.01;;;2.85;100.00
45872;BME280;32333;55.844;-3.210;2023-03-14T09:17:05;97963.87;;;2.23;100.00
45872;BME280;32333;55.844;-3.210;2023-03-14T09:19:33;97962.98;;;1.98;100.00
45872;BME280;32333;55.844;-3.210;2023-03-14T09:22:00;97963.16;;;2.20;100.00
45872;BME280;32333;55.844;-3.210;2023-03-14T09:24:28;97967.28;;;2.35;100.00
45872;BME280;32333;55.844;-3.210;2023-03-14T09:26:57;97972.09;;;1.99;100.00
45872;BME280;32333;55.844;-3.210;2023-03-14T09:29:25;97970.62;;;1.99;100.00
45872;BME280;32333;55.844;-3.210;2023-03-14T09:31:52;97968.37;;;3.83;100.00
45872;BME280;32333;55.844;-3.210;2023-03-14T09:34:20;97975.29;;;3.40;100.00
45872;BME280;32333;55.844;-3.210;2023-03-14T09:36:51;97974.67;;;3.68;100.00
45872;BME280;32333;55.844;-3.210;2023-03-14T09:40:01;97984.71;;;4.18;100.00
45872;BME280;32333;55.844;-3.210;2023-03-14T09:44:50;97990.38;;;2.57;100.00
45872;BME280;32333;55.844;-3.210;2023-03-14T09:47:21;97999.01;;;2.75;100.00
45872;BME280;32333;55.844;-3.210;2023-03-14T09:49:50;98007.21;;;3.15;100.00
45872;BME280;32333;55.844;-3.210;2023-03-14T09:52:35;98009.03;;;3.40;100.00
45872;BME280;32333;55.844;-3.210;2023-03-14T09:55:09;98011.01;;;3.40;100.00
45872;BME280;32333;55.844;-3.210;2023-03-14T09:57:45;98017.06;;;3.74;100.00
45872;BME280;32333;55.844;-3.210;2023-03-14T10:00:17;98020.50;;;2.82;100.00
45872;BME280;32333;55.844;-3.210;2023-03-14T10:02:54;98025.47;;;3.51;100.00
45872;BME280;32333;55.844;-3.210;2023-03-14T10:05:26;98026.91;;;4.12;100.00
45872;BME280;32333;55.844;-3.210;2023-03-14T10:08:27;98024.89;;;4.19;100.00
45872;BME280;32333;55.844;-3.210;2023-03-14T10:10:56;98030.12;;;4.86;100.00
45872;BME280;32333;55.844;-3.210;2023-03-14T10:14:44;98037.36;;;6.72;100.00
45872;BME280;32333;55.844;-3.210;2023-03-14T10:17:13;98051.09;;;6.14;100.00
45872;BME280;32333;55.844;-3.210;2023-03-14T10:19:52;98062.57;;;4.72;100.00
45872;BME280;32333;55.844;-3.210;2023-03-14T10:22:21;98070.49;;;5.32;100.00
45872;BME280;32333;55.844;-3.210;2023-03-14T10:24:53;98078.79;;;4.95;100.00
45872;BME280;32333;55.844;-3.210;2023-03-14T10:27:22;98077.22;;;4.81;100.00
45872;BME280;32333;55.844;-3.210;2023-03-14T10:29:54;98082.26;;;5.00;100.00
45872;BME280;32333;55.844;-3.210;2023-03-14T10:32:29;98079.11;;;4.58;100.00
45872;BME280;32333;55.844;-3.210;2023-03-14T10:35:08;98087.73;;;3.05;100.00
45872;BME280;32333;55.844;-3.210;2023-03-14T10:37:50;98093.49;;;3.94;100.00
45872;BME280;32333;55.844;-3.210;2023-03-14T10:40:22;98099.00;;;3.00;100.00
45872;BME280;32333;55.844;-3.210;2023-03-14T10:44:36;98109.52;;;3.65;100.00
45872;BME280;32333;55.844;-3.210;2023-03-14T10:47:06;98115.15;;;3.13;100.00
45872;BME280;32333;55.844;-3.210;2023-03-14T10:49:39;98121.06;;;3.08;100.00
45872;BME280;32333;55.844;-3.210;2023-03-14T10:52:47;98125.40;;;3.29;100.00
45872;BME280;32333;55.844;-3.210;2023-03-14T10:55:19;98124.92;;;2.31;100.00
45872;BME280;32333;55.844;-3.210;2023-03-14T10:57:53;98130.36;;;2.61;100.00
45872;BME280;32333;55.844;-3.210;2023-03-14T11:00:28;98141.64;;;1.90;100.00
45872;BME280;32333;55.844;-3.210;2023-03-14T11:03:04;98145.84;;;2.09;100.00
45872;BME280;32333;55.844;-3.210;2023-03-14T11:05:40;98147.82;;;1.37;100.00
45872;BME280;32333;55.844;-3.210;2023-03-14T11:08:19;98149.55;;;1.39;100.00
45872;BME280;32333;55.844;-3.210;2023-03-14T11:10:52;98152.49;;;1.67;100.00
45872;BME280;32333;55.844;-3.210;2023-03-14T11:14:40;98157.03;;;2.05;100.00
45872;BME280;32333;55.844;-3.210;2023-03-14T11:17:15;98167.45;;;1.41;100.00
45872;BME280;32333;55.844;-3.210;2023-03-14T11:20:03;98173.10;;;1.28;100.00
45872;BME280;32333;55.844;-3.210;2023-03-14T11:22:38;98188.68;;;-0.17;100.00
45872;BME280;32333;55.844;-3.210;2023-03-14T11:25:18;98191.23;;;-0.65;100.00
45872;BME280;32333;55.844;-3.210;2023-03-14T11:27:56;98193.50;;;0.84;100.00
45872;BME280;32333;55.844;-3.210;2023-03-14T11:30:35;98194.39;;;0.21;100.00
45872;BME280;32333;55.844;-3.210;2023-03-14T11:33:14;98199.31;;;0.18;100.00
45872;BME280;32333;55.844;-3.210;2023-03-14T11:35:47;98197.95;;;0.39;100.00
45872;BME280;32333;55.844;-3.210;2023-03-14T11:38:28;98200.39;;;-0.85;100.00
45872;BME280;32333;55.844;-3.210;2023-03-14T11:40:58;98201.12;;;-0.81;100.00
45872;BME280;32333;55.844;-3.210;2023-03-14T11:44:37;98212.48;;;-0.16;100.00
45872;BME280;32333;55.844;-3.210;2023-03-14T11:47:08;98217.57;;;-0.01;100.00
45872;BME280;32333;55.844;-3.210;2023-03-14T11:49:42;98215.48;;;0.50;100.00
45872;BME280;32333;55.844;-3.210;2023-03-14T11:52:13;98210.58;;;2.13;100.00
45872;BME280;32333;55.844;-3.210;2023-03-14T11:54:49;98214.39;;;2.31;100.00
45872;BME280;32333;55.844;-3.210;2023-03-14T11:57:21;98218.31;;;1.40;100.00
45872;BME280;32333;55.844;-3.210;2023-03-14T11:59:54;98216.99;;;1.79;100.00
45872;BME280;32333;55.844;-3.210;2023-03-14T12:02:28;98220.16;;;2.41;100.00
45872;BME280;32333;55.844;-3.210;2023-03-14T12:05:28;98226.18;;;2.66;100.00
45872;BME280;32333;55.844;-3.210;2023-03-14T12:09:05;98229.24;;;1.74;100.00
45872;BME280;32333;55.844;-3.210;2023-03-14T12:11:37;98236.05;;;1.50;100.00
45872;BME280;32333;55.844;-3.210;2023-03-14T12:14:38;98238.52;;;2.08;100.00
45872;BME280;32333;55.844;-3.210;2023-03-14T12:17:21;98247.23;;;1.66;100.00
45872;BME280;32333;55.844;-3.210;2023-03-14T12:20:00;98241.71;;;3.41;100.00
45872;BME280;32333;55.844;-3.210;2023-03-14T12:22:30;98247.30;;;1.82;100.00
45872;BME280;32333;55.844;-3.210;2023-03-14T12:25:03;98251.26;;;2.39;100.00
45872;BME280;32333;55.844;-3.210;2023-03-14T12:28:05;98254.09;;;2.89;100.00
45872;BME280;32333;55.844;-3.210;2023-03-14T12:30:34;98263.65;;;2.23;100.00
45872;BME280;32333;55.844;-3.210;2023-03-14T12:33:29;98266.99;;;2.46;100.00
45872;BME280;32333;55.844;-3.210;2023-03-14T12:36:00;98272.59;;;2.37;100.00
45872;BME280;32333;55.844;-3.210;2023-03-14T12:38:37;98272.02;;;2.48;100.00
45872;BME280;32333;55.844;-3.210;2023-03-14T12:41:15;98280.15;;;2.84;100.00
45872;BME280;32333;55.844;-3.210;2023-03-14T12:44:46;98277.48;;;3.25;100.00
45872;BME280;32333;55.844;-3.210;2023-03-14T12:49:50;98281.24;;;3.94;100.00
45872;BME280;32333;55.844;-3.210;2023-03-14T12:52:22;98296.63;;;2.89;100.00
45872;BME280;32333;55.844;-3.210;2023-03-14T12:55:00;98293.85;;;3.48;100.00
45872;BME280;32333;55.844;-3.210;2023-03-14T12:57:33;98297.91;;;2.01;100.00
45872;BME280;32333;55.844;-3.210;2023-03-14T13:00:17;98295.88;;;3.90;100.00
45872;BME280;32333;55.844;-3.210;2023-03-14T13:03:15;98309.52;;;3.17;100.00
45872;BME280;32333;55.844;-3.210;2023-03-14T13:05:57;98316.37;;;2.01;100.00
45872;BME280;32333;55.844;-3.210;2023-03-14T13:08:36;98314.38;;;3.70;100.00
45872;BME280;32333;55.844;-3.210;2023-03-14T13:11:08;98320.58;;;2.58;100.00
45872;BME280;32333;55.844;-3.210;2023-03-14T13:14:41;98318.86;;;2.32;100.00
45872;BME280;32333;55.844;-3.210;2023-03-14T13:17:13;98312.52;;;4.20;100.00
45872;BME280;32333;55.844;-3.210;2023-03-14T13:19:41;98320.05;;;3.56;100.00
45872;BME280;32333;55.844;-3.210;2023-03-14T13:22:19;98318.80;;;3.42;100.00
45872;BME280;32333;55.844;-3.210;2023-03-14T13:24:48;98327.91;;;3.13;100.00
45872;BME280;32333;55.844;-3.210;2023-03-14T13:27:18;98333.49;;;2.59;100.00
45872;BME280;32333;55.844;-3.210;2023-03-14T13:29:49;98337.18;;;3.15;100.00
45872;BME280;32333;55.844;-3.210;2023-03-14T13:32:21;98335.03;;;2.79;100.00
45872;BME280;32333;55.844;-3.210;2023-03-14T13:34:49;98335.97;;;2.13;100.00
45872;BME280;32333;55.844;-3.210;2023-03-14T13:37:20;98338.18;;;3.12;100.00
45872;BME280;32333;55.844;-3.210;2023-03-14T13:39:53;98340.55;;;2.49;100.00